Time;durP1;ratioP1;P1;durP2;ratioP2;P2;SDS_P1;SDS_P2;PMS_P1;PMS_P2;Temp;Humidity;BMP_temperature;BMP_pressure;BME280_temperature;BME280_humidity;BME280_pressure;Samples;Min_cycle;Max_cycle;Signal;HPM_P1;HPM_P2
2023/12/21 00:01:49;;;;;;;1.80;1.10;;;;;;;4.87;100.00;100360.34;104287;1269;61076;-54
2023/12/21 00:04:17;;;;;;;2.20;1.30;;;;;;;4.85;100.00;100351.84;104700;1269;72742;-57
2023/12/21 00:06:44;;;;;;;1.40;1.00;;;;;;;4.82;100.00;100345.48;104008;1269;65879;-59
2023/12/21 00:09:12;;;;;;;1.50;0.80;;;;;;;4.81;100.00;100335.73;104091;1269;72763;-56
2023/12/21 00:11:39;;;;;;;2.20;0.90;;;;;;;4.80;100.00;100330.77;104065;1264;60970;-54
2023/12/21 00:14:06;;;;;;;1.70;0.90;;;;;;;4.80;100.00;100332.90;104155;1267;59959;-58
2023/12/21 00:16:33;;;;;;;0.80;0.70;;;;;;;4.81;100.00;100335.02;104192;1264;73046;-55
2023/12/21 00:19:01;;;;;;;1.20;0.70;;;;;;;4.82;100.00;100329.84;108197;1266;67891;-55
2023/12/21 00:21:28;;;;;;;1.60;0.90;;;;;;;4.84;100.00;100325.38;108310;1263;71549;-58
2023/12/21 00:23:56;;;;;;;1.40;1.00;;;;;;;4.84;100.00;100320.77;108203;1263;59221;-59
2023/12/21 00:26:23;;;;;;;1.30;0.70;;;;;;;4.83;100.00;100323.42;108290;1264;58789;-54
2023/12/21 00:28:50;;;;;;;1.50;0.90;;;;;;;4.80;100.00;100312.98;106091;1267;73098;-55
2023/12/21 00:31:18;;;;;;;2.20;1.00;;;;;;;4.78;100.00;100307.86;104094;1264;67227;-54
2023/12/21 00:33:45;;;;;;;1.10;0.90;;;;;;;4.76;100.00;100305.94;107872;1264;71789;-55
2023/12/21 00:36:16;;;;;;;1.20;0.80;;;;;;;4.74;100.00;100303.84;104103;1269;60217;-53
2023/12/21 00:38:43;;;;;;;0.90;0.60;;;;;;;4.74;100.00;100304.02;104634;1264;60132;-52
2023/12/21 00:41:11;;;;;;;0.80;0.60;;;;;;;4.74;100.00;100295.66;104609;1261;73114;-55
2023/12/21 00:43:38;;;;;;;0.90;0.70;;;;;;;4.76;100.00;100287.64;104619;1263;67247;-56
2023/12/21 00:46:05;;;;;;;0.90;0.70;;;;;;;4.78;100.00;100284.73;104713;1263;71462;-57
2023/12/21 00:48:33;;;;;;;1.20;0.70;;;;;;;4.80;100.00;100282.39;104643;1263;59736;-54
2023/12/21 00:51:00;;;;;;;1.20;0.70;;;;;;;4.83;100.00;100278.98;108518;1263;60973;-54
2023/12/21 00:53:27;;;;;;;0.80;0.60;;;;;;;4.84;100.00;100275.77;105070;1263;71844;-54
2023/12/21 00:55:55;;;;;;;0.90;0.80;;;;;;;4.84;100.00;100278.79;104595;1265;67181;-51
2023/12/21 00:58:22;;;;;;;1.00;0.80;;;;;;;4.82;100.00;100268.86;104456;1266;71513;-55
2023/12/21 01:00:50;;;;;;;1.20;0.70;;;;;;;4.78;100.00;100260.38;104514;1264;59647;-59
2023/12/21 01:03:17;;;;;;;1.60;0.70;;;;;;;4.73;100.00;100254.79;105481;1262;59830;-59
2023/12/21 01:05:45;;;;;;;1.00;0.70;;;;;;;4.69;100.00;100250.74;104648;1263;74040;-55
2023/12/21 01:08:12;;;;;;;0.70;0.60;;;;;;;4.66;100.00;100243.16;104700;1263;65731;-54
2023/12/21 01:10:39;;;;;;;0.70;0.60;;;;;;;4.64;100.00;100238.75;104453;1264;72348;-55
2023/12/21 01:13:07;;;;;;;0.90;0.70;;;;;;;4.63;100.00;100233.98;105306;1258;60043;-56
2023/12/21 01:15:34;;;;;;;1.10;0.60;;;;;;;4.63;100.00;100231.83;105296;1260;59803;-59
2023/12/21 01:18:01;;;;;;;0.90;0.60;;;;;;;4.65;100.00;100225.95;104686;1259;70650;-56
2023/12/21 01:20:29;;;;;;;0.80;0.60;;;;;;;4.65;100.00;100231.45;104692;1259;65720;-57
2023/12/21 01:22:56;;;;;;;0.60;0.60;;;;;;;4.65;100.00;100234.30;104737;1254;72648;-52
2023/12/21 01:25:23;;;;;;;0.70;0.50;;;;;;;4.63;100.00;100240.19;104575;1254;59807;-58
2023/12/21 01:27:51;;;;;;;0.70;0.60;;;;;;;4.62;100.00;100237.01;104700;1260;60112;-57
2023/12/21 01:30:21;;;;;;;1.60;0.60;;;;;;;4.60;100.00;100232.94;104815;1260;73573;-55
2023/12/21 01:32:48;;;;;;;0.70;0.60;;;;;;;4.57;100.00;100235.31;104872;1260;67384;-55
2023/12/21 01:35:16;;;;;;;1.00;0.60;;;;;;;4.54;100.00;100232.86;104783;1259;70817;-57
2023/12/21 01:37:44;;;;;;;0.50;0.40;;;;;;;4.52;100.00;100229.87;105231;1254;61494;-55
2023/12/21 01:40:12;;;;;;;0.60;0.50;;;;;;;4.52;100.00;100227.20;104930;1256;59736;-56
2023/12/21 01:42:39;;;;;;;0.50;0.50;;;;;;;4.54;100.00;100231.62;106443;1254;71808;-57
2023/12/21 01:45:07;;;;;;;0.50;0.50;;;;;;;4.56;100.00;100226.27;104894;1260;65994;-56
2023/12/21 01:47:35;;;;;;;1.10;0.60;;;;;;;4.61;100.00;100229.92;104794;1257;72686;-54
2023/12/21 01:50:02;;;;;;;0.60;0.60;;;;;;;4.63;100.00;100221.89;106084;1259;59764;-57
2023/12/21 01:52:30;;;;;;;0.60;0.60;;;;;;;4.63;100.00;100222.06;104682;1254;59720;-59
2023/12/21 01:54:57;;;;;;;0.80;0.60;;;;;;;4.62;100.00;100224.20;104619;1254;73069;-55
2023/12/21 01:57:25;;;;;;;0.70;0.60;;;;;;;4.61;100.00;100217.29;104822;1261;66768;-54
2023/12/21 01:59:52;;;;;;;0.90;0.70;;;;;;;4.59;100.00;100220.73;104799;1254;73408;-57
2023/12/21 02:02:19;;;;;;;1.00;0.60;;;;;;;4.56;100.00;100219.16;105449;1254;59736;-59
2023/12/21 02:04:47;;;;;;;0.70;0.60;;;;;;;4.53;100.00;100215.64;104925;1260;59630;-57
2023/12/21 02:07:14;;;;;;;0.60;0.40;;;;;;;4.52;100.00;100207.66;104843;1258;70857;-58
2023/12/21 02:09:42;;;;;;;0.80;0.50;;;;;;;4.52;100.00;100194.69;104740;1254;67028;-57
2023/12/21 02:12:09;;;;;;;0.60;0.40;;;;;;;4.53;100.00;100188.09;104550;1258;72691;-55
2023/12/21 02:14:37;;;;;;;0.60;0.40;;;;;;;4.55;100.00;100187.36;104741;1261;59708;-59
2023/12/21 02:17:10;;;;;;;0.70;0.30;;;;;;;4.60;100.00;100187.44;104856;1260;59515;-54
2023/12/21 02:19:38;;;;;;;0.60;0.40;;;;;;;4.64;100.00;100195.73;104965;1255;71795;-54
2023/12/21 02:22:05;;;;;;;0.50;0.40;;;;;;;4.67;100.00;100194.63;104781;1259;65950;-60
2023/12/21 02:24:32;;;;;;;1.60;0.40;;;;;;;4.68;100.00;100196.75;104865;1259;72046;-57
2023/12/21 02:27:00;;;;;;;0.50;0.40;;;;;;;4.67;100.00;100198.02;104694;1260;60894;-57
2023/12/21 02:29:27;;;;;;;0.70;0.50;;;;;;;4.65;100.00;100198.74;105035;1257;59560;-60
2023/12/21 02:31:54;;;;;;;3.70;0.50;;;;;;;4.63;100.00;100189.17;104782;1258;73059;-58
2023/12/21 02:34:22;;;;;;;0.60;0.50;;;;;;;4.59;100.00;100188.19;105604;1255;66231;-56
2023/12/21 02:36:49;;;;;;;0.50;0.50;;;;;;;4.53;100.00;100185.25;104834;1255;72694;-56
2023/12/21 02:39:17;;;;;;;1.00;0.60;;;;;;;4.47;100.00;100174.52;104791;1254;59679;-54
2023/12/21 02:41:51;;;;;;;0.70;0.60;;;;;;;4.39;100.00;100168.96;104782;1254;60091;-57
2023/12/21 02:44:18;;;;;;;0.50;0.50;;;;;;;4.32;100.00;100168.56;107851;1259;73851;-57
2023/12/21 02:46:46;;;;;;;0.50;0.50;;;;;;;4.24;100.00;100154.48;104751;1257;67208;-60
2023/12/21 02:49:13;;;;;;;1.10;0.50;;;;;;;4.18;100.00;100149.23;104736;1256;71494;-60
2023/12/21 02:51:41;;;;;;;2.30;0.50;;;;;;;4.14;100.00;100145.40;104633;1259;60195;-55
2023/12/21 02:54:08;;;;;;;0.70;0.50;;;;;;;4.10;100.00;100137.63;104524;1254;59639;-58
2023/12/21 02:56:35;;;;;;;0.60;0.40;;;;;;;4.08;100.00;100135.72;104754;1260;72151;-56
2023/12/21 02:59:03;;;;;;;0.90;0.50;;;;;;;4.06;100.00;100133.45;104718;1260;67099;-57
2023/12/21 03:01:30;;;;;;;1.10;0.40;;;;;;;4.04;100.00;100128.15;108871;1254;74211;-60
2023/12/21 03:03:59;;;;;;;1.50;0.50;;;;;;;4.01;100.00;100124.81;108731;1256;58168;-57
2023/12/21 03:06:27;;;;;;;0.70;0.50;;;;;;;3.99;100.00;100124.50;104842;1255;59557;-58
2023/12/21 03:08:54;;;;;;;1.30;0.50;;;;;;;3.96;100.00;100118.88;104926;1254;73065;-55
2023/12/21 03:11:22;;;;;;;1.10;0.50;;;;;;;3.92;100.00;100113.27;104899;1259;67373;-56
2023/12/21 03:13:49;;;;;;;0.50;0.40;;;;;;;3.86;100.00;100105.88;104710;1260;71469;-59
2023/12/21 03:16:19;;;;;;;0.60;0.50;;;;;;;3.81;100.00;100098.16;104945;1257;61103;-59
2023/12/21 03:18:47;;;;;;;0.50;0.30;;;;;;;3.76;100.00;100091.13;108815;1254;60229;-58
2023/12/21 03:21:15;;;;;;;0.70;0.40;;;;;;;3.70;100.00;100078.98;106001;1259;71405;-60
2023/12/21 03:23:42;;;;;;;0.70;0.40;;;;;;;3.64;100.00;100071.27;108909;1253;66245;-58
2023/12/21 03:26:10;;;;;;;0.70;0.40;;;;;;;3.58;100.00;100061.95;108922;1257;72690;-58
2023/12/21 03:28:38;;;;;;;3.30;0.50;;;;;;;3.52;100.00;100051.56;108898;1259;61496;-58
2023/12/21 03:31:08;;;;;;;1.20;0.80;;;;;;;3.47;100.00;100039.42;108933;1254;58088;-60
2023/12/21 03:33:36;;;;;;;1.60;0.60;;;;;;;3.42;100.00;100037.17;108909;1254;73029;-60
2023/12/21 03:36:04;;;;;;;1.00;0.60;;;;;;;3.37;100.00;100032.80;108930;1254;67352;-59
2023/12/21 03:38:31;;;;;;;2.20;0.50;;;;;;;3.33;100.00;100029.13;108788;1257;72526;-58
2023/12/21 03:40:58;;;;;;;1.70;0.50;;;;;;;3.32;100.00;100024.90;108947;1254;60091;-58
2023/12/21 03:43:25;;;;;;;1.30;0.50;;;;;;;3.31;100.00;100022.27;107503;1258;61774;-60
2023/12/21 03:45:57;;;;;;;1.10;0.40;;;;;;;3.30;100.00;100021.58;107760;1254;71837;-59
2023/12/21 03:48:24;;;;;;;1.20;0.50;;;;;;;3.29;100.00;100015.02;104659;1256;64608;-59
2023/12/21 03:50:52;;;;;;;0.80;0.50;;;;;;;3.26;100.00;100009.02;104758;1260;73175;-58
2023/12/21 03:53:19;;;;;;;3.30;0.50;;;;;;;3.25;100.00;100002.83;104850;1254;60668;-60
2023/12/21 03:55:46;;;;;;;0.80;0.60;;;;;;;3.22;100.00;100005.73;105024;1254;60398;-59
2023/12/21 03:58:13;;;;;;;0.40;0.40;;;;;;;3.19;100.00;100003.80;104709;1254;73948;-59
2023/12/21 04:00:41;;;;;;;3.20;0.50;;;;;;;3.15;100.00;100003.34;104716;1260;66730;-58
2023/12/21 04:03:08;;;;;;;0.70;0.40;;;;;;;3.09;100.00;99998.98;104963;1254;72707;-60
2023/12/21 04:05:38;;;;;;;0.80;0.40;;;;;;;3.04;100.00;99996.59;104603;1260;61323;-59
2023/12/21 04:08:06;;;;;;;0.60;0.40;;;;;;;2.99;100.00;99997.70;105091;1254;60517;-59
2023/12/21 04:10:33;;;;;;;0.80;0.50;;;;;;;2.94;100.00;99990.69;104750;1257;74325;-58
2023/12/21 04:13:01;;;;;;;1.10;0.60;;;;;;;2.88;100.00;99985.27;105039;1253;67666;-60
2023/12/21 04:15:28;;;;;;;2.00;1.30;;;;;;;2.82;100.00;99982.00;104719;1254;71509;-60
2023/12/21 04:17:56;;;;;;;2.70;1.80;;;;;;;2.76;100.00;99976.92;107315;1255;60533;-60
2023/12/21 04:20:23;;;;;;;1.30;1.00;;;;;;;2.73;100.00;99966.88;104763;1255;60542;-60
2023/12/21 04:22:50;;;;;;;3.20;1.00;;;;;;;2.70;100.00;99962.84;104581;1261;74302;-60
2023/12/21 04:25:18;;;;;;;3.40;0.70;;;;;;;2.69;100.00;99960.38;104796;1257;65936;-59
2023/12/21 04:27:45;;;;;;;0.90;0.70;;;;;;;2.68;100.00;99955.95;105048;1258;71831;-60
2023/12/21 04:30:13;;;;;;;1.40;0.60;;;;;;;2.68;100.00;99951.16;104939;1254;60543;-57
2023/12/21 04:32:41;;;;;;;1.20;0.70;;;;;;;2.69;100.00;99955.94;108116;1254;60455;-60
2023/12/21 04:35:09;;;;;;;1.10;0.50;;;;;;;2.69;100.00;99956.29;104812;1254;73907;-58
2023/12/21 04:37:36;;;;;;;1.20;0.60;;;;;;;2.69;100.00;99956.30;105037;1255;66953;-58
2023/12/21 04:40:04;;;;;;;0.80;0.60;;;;;;;2.68;100.00;99955.59;105204;1254;71491;-59
2023/12/21 04:42:32;;;;;;;0.70;0.50;;;;;;;2.68;100.00;99951.69;104963;1258;60438;-57
2023/12/21 04:44:59;;;;;;;5.30;0.60;;;;;;;2.65;100.00;99949.59;104593;1255;60645;-56
2023/12/21 04:47:27;;;;;;;0.60;0.60;;;;;;;2.64;100.00;99950.52;104789;1253;73826;-57
2023/12/21 04:49:54;;;;;;;5.50;0.70;;;;;;;2.60;100.00;99945.95;105363;1258;66106;-59
2023/12/21 04:52:22;;;;;;;1.50;0.70;;;;;;;2.56;100.00;99945.82;104953;1255;71864;-59
2023/12/21 04:54:49;;;;;;;1.10;0.70;;;;;;;2.52;100.00;99938.45;105966;1257;60607;-59
2023/12/21 04:57:16;;;;;;;1.60;0.70;;;;;;;2.48;100.00;99936.35;104586;1252;60422;-60
2023/12/21 04:59:47;;;;;;;3.30;0.70;;;;;;;2.44;100.00;99934.48;104827;1259;73902;-58
2023/12/21 05:02:14;;;;;;;0.70;0.60;;;;;;;2.43;100.00;99924.92;104802;1254;65845;-56
2023/12/21 05:04:42;;;;;;;1.20;0.60;;;;;;;2.42;100.00;99926.52;104755;1254;71504;-59
2023/12/21 05:07:10;;;;;;;1.00;0.60;;;;;;;2.40;100.00;99926.72;104938;1254;60657;-58
2023/12/21 05:09:38;;;;;;;2.60;0.60;;;;;;;2.38;100.00;99924.83;105253;1254;60375;-56
2023/12/21 05:12:05;;;;;;;3.90;0.80;;;;;;;2.37;100.00;99922.70;104806;1258;74261;-56
2023/12/21 05:14:33;;;;;;;1.90;0.80;;;;;;;2.36;100.00;99926.44;104779;1260;65489;-58
2023/12/21 05:17:00;;;;;;;1.70;1.40;;;;;;;2.35;100.00;99926.44;104698;1260;73261;-59
2023/12/21 05:19:28;;;;;;;2.50;1.10;;;;;;;2.34;100.00;99922.20;104995;1257;60540;-57
2023/12/21 05:21:55;;;;;;;2.90;0.90;;;;;;;2.33;100.00;99924.16;105183;1254;60619;-58
2023/12/21 05:24:23;;;;;;;2.10;1.20;;;;;;;2.30;100.00;99922.24;104676;1252;73087;-57
2023/12/21 05:26:50;;;;;;;3.90;2.50;;;;;;;2.26;100.00;99914.33;104987;1254;67270;-59
2023/12/21 05:29:18;;;;;;;5.20;3.10;;;;;;;2.22;100.00;99913.84;104703;1257;71323;-57
2023/12/21 05:31:45;;;;;;;3.60;2.50;;;;;;;2.18;100.00;99910.52;104871;1256;60512;-57
2023/12/21 05:34:12;;;;;;;4.80;2.20;;;;;;;2.18;100.00;99906.64;104870;1254;60475;-56
2023/12/21 05:36:40;;;;;;;3.60;1.80;;;;;;;2.18;100.00;99905.05;104955;1257;74476;-58
2023/12/21 05:39:09;;;;;;;4.10;1.70;;;;;;;2.18;100.00;99903.45;104871;1258;67040;-58
2023/12/21 05:41:44;;;;;;;4.10;2.50;;;;;;;2.19;100.00;99908.22;106458;1254;73204;-57
2023/12/21 05:44:12;;;;;;;8.00;2.30;;;;;;;2.22;100.00;99898.42;106599;1257;60542;-57
2023/12/21 05:46:41;;;;;;;3.90;2.60;;;;;;;2.25;100.00;99894.15;105129;1254;60418;-56
2023/12/21 05:49:09;;;;;;;4.30;2.60;;;;;;;2.28;100.00;99893.77;105943;1254;72633;-58
2023/12/21 05:51:37;;;;;;;7.30;1.70;;;;;;;2.30;100.00;99889.31;105708;1254;66193;-55
2023/12/21 05:54:04;;;;;;;2.90;1.60;;;;;;;2.31;100.00;99887.52;104943;1254;72736;-58
2023/12/21 05:56:35;;;;;;;3.20;1.60;;;;;;;2.31;100.00;99891.77;104955;1254;60521;-57
2023/12/21 05:59:03;;;;;;;5.60;1.80;;;;;;;2.31;100.00;99894.95;109134;1254;60128;-59
2023/12/21 06:01:32;;;;;;;2.60;1.30;;;;;;;2.30;100.00;99892.50;108926;1254;74796;-58
2023/12/21 06:04:00;;;;;;;4.30;1.70;;;;;;;2.29;100.00;99895.54;109163;1253;67528;-59
2023/12/21 06:06:28;;;;;;;1.50;1.10;;;;;;;2.27;100.00;99890.23;109094;1254;73282;-58
2023/12/21 06:08:55;;;;;;;3.50;1.70;;;;;;;2.28;100.00;99890.58;109167;1253;60883;-57
2023/12/21 06:11:23;;;;;;;2.70;1.10;;;;;;;2.29;100.00;99895.17;109129;1254;60067;-58
2023/12/21 06:13:50;;;;;;;1.90;1.00;;;;;;;2.30;100.00;99890.55;109089;1254;73916;-57
2023/12/21 06:16:17;;;;;;;1.60;1.00;;;;;;;2.33;100.00;99895.29;109149;1254;65510;-58
2023/12/21 06:18:45;;;;;;;1.60;0.90;;;;;;;2.36;100.00;99897.20;105804;1254;73222;-57
2023/12/21 06:21:13;;;;;;;6.20;1.20;;;;;;;2.39;100.00;99902.48;104900;1256;60492;-56
2023/12/21 06:23:40;;;;;;;2.40;1.30;;;;;;;2.39;100.00;99903.35;104867;1254;60479;-56
2023/12/21 06:26:07;;;;;;;2.60;1.40;;;;;;;2.41;100.00;99906.52;104892;1257;75508;-57
2023/12/21 06:28:34;;;;;;;2.40;1.60;;;;;;;2.43;100.00;99902.60;104888;1258;66840;-57
2023/12/21 06:31:03;;;;;;;2.60;1.40;;;;;;;2.43;100.00;99907.92;104781;1256;75429;-57
2023/12/21 06:33:31;;;;;;;1.50;1.30;;;;;;;2.42;100.00;99914.66;104964;1257;60546;-57
2023/12/21 06:35:58;;;;;;;3.10;1.80;;;;;;;2.41;100.00;99916.44;109160;1253;59178;-58
2023/12/21 06:38:25;;;;;;;1.50;1.40;;;;;;;2.41;100.00;99912.54;109077;1254;73835;-58
2023/12/21 06:40:53;;;;;;;3.50;1.70;;;;;;;2.42;100.00;99912.36;108981;1254;65111;-59
2023/12/21 06:43:22;;;;;;;2.10;1.40;;;;;;;2.43;100.00;99912.70;107606;1254;74596;-58
2023/12/21 06:45:49;;;;;;;2.50;1.20;;;;;;;2.44;100.00;99912.86;107422;1254;60465;-58
2023/12/21 06:48:17;;;;;;;2.50;1.30;;;;;;;2.48;100.00;99910.86;105082;1254;60463;-57
2023/12/21 06:50:44;;;;;;;2.60;1.70;;;;;;;2.51;100.00;99915.59;105934;1257;76043;-56
2023/12/21 06:53:15;;;;;;;4.40;2.20;;;;;;;2.55;100.00;99910.23;104947;1257;66932;-57
2023/12/21 06:55:43;;;;;;;5.30;2.50;;;;;;;2.59;100.00;99929.67;109093;1253;71478;-58
2023/12/21 06:58:10;;;;;;;3.30;2.00;;;;;;;2.61;100.00;99933.19;105004;1260;60588;-57
2023/12/21 07:00:38;;;;;;;2.90;2.60;;;;;;;2.64;100.00;99933.85;105073;1260;61393;-57
2023/12/21 07:03:06;;;;;;;4.10;2.90;;;;;;;2.65;100.00;99934.17;105091;1254;74004;-57
2023/12/21 07:05:33;;;;;;;4.40;3.30;;;;;;;2.67;100.00;99929.20;105363;1254;67135;-56
2023/12/21 07:08:00;;;;;;;5.00;3.60;;;;;;;2.68;100.00;99924.77;105168;1259;73162;-56
2023/12/21 07:10:28;;;;;;;3.30;2.80;;;;;;;2.68;100.00;99929.20;105114;1259;60979;-57
2023/12/21 07:12:55;;;;;;;4.30;3.00;;;;;;;2.70;100.00;99931.13;104897;1254;60600;-56
2023/12/21 07:15:23;;;;;;;4.40;2.40;;;;;;;2.72;100.00;99929.67;104721;1259;72655;-59
2023/12/21 07:17:51;;;;;;;3.60;2.90;;;;;;;2.74;100.00;99926.44;105195;1254;65681;-57
2023/12/21 07:20:24;;;;;;;10.60;3.20;;;;;;;2.79;100.00;99931.35;104899;1259;73380;-58
2023/12/21 07:22:52;;;;;;;4.30;3.00;;;;;;;2.84;100.00;99932.16;104799;1259;60386;-59
2023/12/21 07:25:19;;;;;;;3.60;3.20;;;;;;;2.89;100.00;99936.15;105243;1254;60891;-59
2023/12/21 07:27:46;;;;;;;4.50;3.10;;;;;;;2.93;100.00;99934.34;106512;1254;74279;-59
2023/12/21 07:30:14;;;;;;;7.00;4.20;;;;;;;2.95;100.00;99936.96;104937;1257;65783;-59
2023/12/21 07:32:42;;;;;;;4.30;3.70;;;;;;;2.96;100.00;99938.55;105635;1257;72338;-59
2023/12/21 07:35:09;;;;;;;6.80;5.00;;;;;;;2.97;100.00;99937.13;104931;1254;61487;-58
2023/12/21 07:37:38;;;;;;;5.40;3.80;;;;;;;2.97;100.00;99941.89;104955;1253;60549;-58
2023/12/21 07:40:06;;;;;;;9.50;5.40;;;;;;;2.97;100.00;99942.27;105771;1254;73922;-59
2023/12/21 07:42:33;;;;;;;5.10;4.10;;;;;;;2.98;100.00;99940.09;104748;1255;67447;-59
2023/12/21 07:45:01;;;;;;;6.90;5.40;;;;;;;3.00;100.00;99944.68;104856;1259;72784;-57
2023/12/21 07:47:28;;;;;;;5.10;3.90;;;;;;;3.03;100.00;99947.48;104713;1254;60527;-60
2023/12/21 07:49:56;;;;;;;5.40;4.00;;;;;;;3.07;100.00;99953.80;104963;1254;60523;-58
2023/12/21 07:52:23;;;;;;;6.70;3.70;;;;;;;3.11;100.00;99956.77;104844;1256;73191;-60
2023/12/21 07:54:51;;;;;;;4.40;3.80;;;;;;;3.17;100.00;99959.67;104876;1254;66965;-59
2023/12/21 07:57:18;;;;;;;5.10;4.60;;;;;;;3.22;100.00;99956.23;104979;1258;74648;-59
2023/12/21 07:59:45;;;;;;;4.90;3.40;;;;;;;3.26;100.00;99960.24;105156;1255;60408;-59
2023/12/21 08:02:12;;;;;;;7.80;4.50;;;;;;;3.29;100.00;99961.80;104901;1259;60517;-60
2023/12/21 08:04:40;;;;;;;4.80;3.60;;;;;;;3.33;100.00;99959.43;105023;1259;73845;-59
2023/12/21 08:07:08;;;;;;;6.30;3.60;;;;;;;3.35;100.00;99961.17;109248;1252;65768;-59
2023/12/21 08:09:35;;;;;;;4.00;3.10;;;;;;;3.36;100.00;99959.20;109106;1253;72756;-59
2023/12/21 08:12:03;;;;;;;4.80;3.00;;;;;;;3.39;100.00;99962.20;104923;1253;61046;-58
2023/12/21 08:14:35;;;;;;;3.70;3.40;;;;;;;3.43;100.00;99959.45;104910;1257;62128;-58
2023/12/21 08:17:07;;;;;;;4.50;3.50;;;;;;;3.49;100.00;99962.36;104908;1258;73103;-59
2023/12/21 08:19:34;;;;;;;3.70;2.90;;;;;;;3.55;100.00;99965.83;105007;1254;65222;-58
2023/12/21 08:22:01;;;;;;;4.40;3.70;;;;;;;3.60;100.00;99963.23;104808;1254;72707;-59
2023/12/21 08:24:29;;;;;;;6.70;4.20;;;;;;;3.67;100.00;99964.55;105052;1254;60478;-60
2023/12/21 08:26:56;;;;;;;6.40;5.60;;;;;;;3.71;100.00;99965.38;104960;1254;60466;-60
2023/12/21 08:29:24;;;;;;;5.10;3.80;;;;;;;3.73;100.00;99966.40;104969;1254;75395;-58
2023/12/21 08:31:51;;;;;;;4.90;4.30;;;;;;;3.71;100.00;99961.12;104840;1261;66972;-58
2023/12/21 08:34:22;;;;;;;7.10;4.00;;;;;;;3.68;100.00;99957.06;104936;1254;72474;-61
2023/12/21 08:36:50;;;;;;;5.20;4.00;;;;;;;3.66;100.00;99955.69;104901;1254;60969;-57
2023/12/21 08:39:17;;;;;;;3.20;2.70;;;;;;;3.64;100.00;99945.80;104896;1254;60435;-57
2023/12/21 08:41:45;;;;;;;3.70;2.70;;;;;;;3.64;100.00;99942.42;104974;1256;73875;-57
2023/12/21 08:44:12;;;;;;;5.00;3.50;;;;;;;3.65;100.00;99937.25;105116;1254;65793;-59
2023/12/21 08:46:43;;;;;;;5.50;3.20;;;;;;;3.68;100.00;99945.71;106453;1256;71761;-59
2023/12/21 08:49:12;;;;;;;5.10;2.70;;;;;;;3.72;100.00;99946.54;105145;1257;60454;-60
2023/12/21 08:51:40;;;;;;;4.70;3.50;;;;;;;3.76;100.00;99945.91;106927;1254;60463;-58
2023/12/21 08:54:07;;;;;;;3.90;3.20;;;;;;;3.80;100.00;99943.38;107254;1256;72739;-60
2023/12/21 08:56:42;;;;;;;3.80;2.90;;;;;;;3.84;100.00;99942.23;104897;1254;67111;-60
2023/12/21 08:59:09;;;;;;;3.90;3.20;;;;;;;3.89;100.00;99945.35;109086;1253;73388;-58
2023/12/21 09:01:37;;;;;;;3.20;2.80;;;;;;;3.94;100.00;99944.17;108974;1254;62290;-60
2023/12/21 09:04:07;;;;;;;4.10;2.50;;;;;;;4.02;100.00;99944.92;109123;1253;59286;-59
2023/12/21 09:06:35;;;;;;;4.30;2.40;;;;;;;4.11;100.00;99950.96;109053;1253;74308;-59
2023/12/21 09:09:02;;;;;;;5.20;2.10;;;;;;;4.21;100.00;99955.05;109086;1254;66989;-58
2023/12/21 09:11:30;;;;;;;2.60;1.70;;;;;;;4.31;100.00;99961.41;109202;1253;73198;-60
2023/12/21 09:13:57;;;;;;;2.80;1.70;;;;;;;4.39;100.00;99960.02;109129;1252;58393;-57
2023/12/21 09:16:24;;;;;;;3.20;1.60;;;;;;;4.46;100.00;99962.70;109049;1253;60213;-59
2023/12/21 09:18:52;;;;;;;3.10;1.50;;;;;;;4.51;100.00;99966.14;109112;1253;73045;-58
2023/12/21 09:21:19;;;;;;;2.50;2.00;;;;;;;4.54;100.00;99965.04;109139;1252;66932;-57
2023/12/21 09:23:47;;;;;;;4.00;2.20;;;;;;;4.55;100.00;99969.10;109037;1254;71501;-60
2023/12/21 09:26:14;;;;;;;2.60;1.50;;;;;;;4.58;100.00;99970.48;109138;1254;58858;-59
2023/12/21 09:28:41;;;;;;;1.90;1.40;;;;;;;4.61;100.00;99971.81;107689;1257;59998;-57
2023/12/21 09:31:09;;;;;;;2.00;1.30;;;;;;;4.62;100.00;99972.15;104971;1253;72674;-62
2023/12/21 09:33:39;;;;;;;3.50;1.30;;;;;;;4.63;100.00;99970.70;106627;1256;66638;-57
2023/12/21 09:36:09;;;;;;;2.40;1.50;;;;;;;4.67;100.00;99977.21;107692;1254;70671;-58
2023/12/21 09:38:36;;;;;;;3.10;1.40;;;;;;;4.70;100.00;99975.01;105084;1254;60526;-58
2023/12/21 09:41:04;;;;;;;3.20;1.50;;;;;;;4.72;100.00;99970.89;105037;1253;60554;-57
2023/12/21 09:43:31;;;;;;;3.00;1.60;;;;;;;4.76;100.00;99972.59;104801;1252;73882;-60
2023/12/21 09:45:59;;;;;;;2.00;1.40;;;;;;;4.80;100.00;99978.54;104749;1254;66262;-60
2023/12/21 09:48:27;;;;;;;1.60;1.00;;;;;;;4.83;100.00;99979.20;105717;1254;71455;-58
2023/12/21 09:50:54;;;;;;;2.40;1.30;;;;;;;4.87;100.00;99984.23;104932;1259;60562;-56
2023/12/21 09:53:22;;;;;;;1.80;1.10;;;;;;;4.90;100.00;99991.83;104749;1259;60546;-57
2023/12/21 09:55:50;;;;;;;2.40;1.10;;;;;;;4.94;100.00;99993.16;104878;1253;72037;-59
2023/12/21 09:58:18;;;;;;;3.30;1.10;;;;;;;4.99;100.00;99992.73;106364;1254;66260;-59
2023/12/21 10:00:45;;;;;;;2.10;1.50;;;;;;;5.03;100.00;99999.02;104889;1256;71453;-58
2023/12/21 10:03:13;;;;;;;1.80;1.40;;;;;;;5.08;100.00;99998.92;104705;1257;60552;-59
2023/12/21 10:05:40;;;;;;;2.40;1.20;;;;;;;5.10;100.00;99997.80;104702;1259;60534;-59
2023/12/21 10:08:08;;;;;;;1.20;0.90;;;;;;;5.14;100.00;99994.86;105648;1258;73902;-59
2023/12/21 10:10:37;;;;;;;1.60;0.90;;;;;;;5.15;100.00;99995.01;104862;1253;67495;-59
2023/12/21 10:13:05;;;;;;;1.40;1.00;;;;;;;5.19;100.00;99994.58;107523;1254;72490;-57
2023/12/21 10:15:33;;;;;;;3.00;1.20;;;;;;;5.22;100.00;99998.59;104721;1254;60373;-56
2023/12/21 10:18:00;;;;;;;1.90;1.00;;;;;;;5.28;100.00;100001.13;105997;1252;60466;-59
2023/12/21 10:20:27;;;;;;;1.70;0.90;;;;;;;5.37;100.00;100007.50;104915;1254;72596;-58
2023/12/21 10:22:56;;;;;;;3.60;1.20;;;;;;;5.47;100.00;100012.80;105181;1254;65967;-58
2023/12/21 10:25:25;;;;;;;1.60;1.10;;;;;;;5.54;100.00;100023.83;104782;1254;71798;-60
2023/12/21 10:27:56;;;;;;;1.60;1.00;;;;;;;5.59;100.00;100033.33;104996;1254;60363;-58
2023/12/21 10:30:24;;;;;;;4.60;1.10;;;;;;;5.62;100.00;100038.92;104593;1254;60645;-57
2023/12/21 10:32:52;;;;;;;1.70;1.00;;;;;;;5.60;100.00;100039.52;104651;1254;73194;-60
2023/12/21 10:35:25;;;;;;;2.30;1.00;;;;;;;5.57;100.00;100044.23;105295;1254;67349;-61
2023/12/21 10:37:53;;;;;;;2.60;1.60;;;;;;;5.54;100.00;100041.45;106091;1256;71459;-61
2023/12/21 10:40:23;;;;;;;3.40;1.20;;;;;;;5.49;100.00;100041.58;104691;1259;60441;-61
2023/12/21 10:42:54;;;;;;;3.40;1.10;;;;;;;5.44;100.00;100041.34;105089;1254;60508;-60
2023/12/21 10:45:22;;;;;;;1.80;1.30;;;;;;;5.36;100.00;100033.86;105243;1254;72368;-59
2023/12/21 10:48:08;;;;;;;2.10;1.10;;;;;;;5.28;100.00;100037.22;105058;1253;65727;-60
2023/12/21 10:50:36;;;;;;;2.10;1.30;;;;;;;5.21;100.00;100028.31;105281;1254;71479;-59
2023/12/21 10:53:04;;;;;;;2.70;1.50;;;;;;;5.16;100.00;100016.54;104739;1254;60341;-60
2023/12/21 10:55:32;;;;;;;1.30;0.90;;;;;;;5.12;100.00;100005.73;105451;1254;60925;-59
2023/12/21 10:58:02;;;;;;;2.30;1.20;;;;;;;5.11;100.00;99992.05;104877;1257;72954;-60
2023/12/21 11:00:30;;;;;;;2.20;1.30;;;;;;;5.12;100.00;99992.39;104823;1253;65844;-60
2023/12/21 11:02:57;;;;;;;2.20;1.40;;;;;;;5.14;100.00;99980.80;104626;1256;72745;-60
2023/12/21 11:05:26;;;;;;;1.70;1.30;;;;;;;5.17;100.00;99980.73;104482;1259;60586;-58
2023/12/21 11:07:54;;;;;;;2.10;1.20;;;;;;;5.20;100.00;99979.76;105557;1259;60435;-58
2023/12/21 11:10:23;;;;;;;2.30;1.20;;;;;;;5.23;100.00;99979.54;104823;1254;72685;-58
2023/12/21 11:12:50;;;;;;;2.50;1.40;;;;;;;5.24;100.00;99975.95;108223;1254;67264;-59
2023/12/21 11:15:19;;;;;;;4.70;1.30;;;;;;;5.26;100.00;99968.80;104862;1254;71756;-58
2023/12/21 11:17:49;;;;;;;2.20;1.40;;;;;;;5.26;100.00;99966.66;105395;1256;60352;-58
2023/12/21 11:20:32;;;;;;;2.00;1.50;;;;;;;5.24;100.00;99969.19;104850;1253;60543;-58
2023/12/21 11:23:12;;;;;;;2.60;1.20;;;;;;;5.21;100.00;99982.06;104827;1259;72697;-59
2023/12/21 11:25:40;;;;;;;2.30;1.40;;;;;;;5.19;100.00;99963.45;105046;1253;66236;-61